Hauptseite
METAR-TAF:

METAR-TAF

Flughäfen :

Kbely

Prag, Tschechien

Breite: 50-07-17N, Länge: 14-32-37E, Höhe: 286 m

Beobachtung

Neuester Wetterbericht von vor 1 Stunde und 7 Minuten, um 13:00 UTC
Wind 9 kt aus Südwest
Temperatur 23°C
Luftfeuchtigkeit 53%
Luftdruck 1023 hPa
Sichtweite 10 km oder mehr
keine Wolken unter 1500 m und keine Kumulonimbus oder Gewitterwolken

METAR: LKKB 191300Z 22009KT CAVOK 23/13 Q1023 NOSIG

Zeit: 16:07 (14:07 UTC)

Prognose

Neuester Wetterbericht von vor 3 Stunden und 7 Minuten, um 11:00 UTC
Gültige Prognose vom 19 um 12 UTC bis 20 um 12 UTC
Wind 8 kt aus West/Nordwest
Sichtweite 10 km oder mehr
keine Wolken unter 1500 m und keine Kumulonimbus oder Gewitterwolken
Übergehend zu
vom 19 um 21 UTC bis 19 um 23 UTC
Wind 2 kt aus unterschiedlichen Richtungen

TAF: LKKB 191100Z 1912/2012 29008KT CAVOK BECMG 1921/1923 VRB02KT

Wetterbeobachtungen und Prognosen von mehr als 4000 Flughäfen (METAR und TAF Bericht).

Die verfügbaren Stationen werden durch gelbe und rote Markierungen auf der Karte dargestellt.

Führen Sie die Maus auf sie, um den Namen der Station zu sehen.

Darauf klicken, um die Beobachtung von Wetterbeobachtungen und Prognosen zu sehen.

Um die Karte zu ändern : klicken Sie auf den grünen Tasten mit einem schwarzen Kreuz Zum Vergrößern, auf den grünen Button mit einem Gedankenstrich zu verkleinern, oder auf die grünen Pfeile für benachbarte Karten.


METAR-TAF: